International Virtual Aviation Organisation

Russian Federation and Kazakhstan MCD

 

Карточка аэропорта ULMM

Внимание!
Информация на этой странице в стадии наполнения.
Если вы не увидели какой-то информации, или заметили неточность - пожалуйста сообщите нам!
Спасибо!
Команда RU-STAFF
Название аэропортаМурманск
Название аэропорта (англ.)Murmansk
Превышение262 ft. (79.9 m.)
Координаты68°46.902', 32°45.066'
Высота перехода900m
Эшелон переходаQFE>=753mm:FL050; QFE<753=>727:FL060; QFE<727:FL070
Коды ответчика3101-3117
Зона ОрВДМурманск РПИ (ULMM)
Данные METARULMM 241500Z 26001MPS 9999 BKN011CB M02/M03 Q0979 R31/450047 NOSIG RMK QFE727
Проноз погоды (TAF)ULMM 241352Z 2415/2515 27003MPS 3100 -SHSN BKN011CB TEMPO 2415/2420 32003MPS 1200 SHSN BECMG 2420/2422 36003G08MPS TEMPO 2422/2506 02003G08MPS 0600 +SHSN VV005 TEMPO 2506/2515 34003G08MPS 1400 SHSN SCT007 BKN011CB
NOTAMshow/hide NOTAM
AWOS   TABLE

Информация о ВПП

ВПП Длина ВПП (м.) Покрытие Курс ВПП Частота ILS
132500Асфальтобетон131110.3
312500Асфальтобетон311108.5

Диспетчерские позиции




Спутниковое изображение